Chester, New York
Current Conditions -  °F | °C
As of 10:54 PM on Thursday 27 Nov 2014 (Local Time) from KMGJ Reporting Station
Broken Clouds Broken Clouds  
Wind Chill: 30°   Ceiling: 4600
Heat Index: 30°   Visibility: 10mi
Dew Point: 27°   Wind: 3mph
Humidity: 88%   Direction: 270°W
Pressure: 30.04"   Gusts: NA
Location:  41.36°N, 74.27°W
Report Text: KMGJ 280354Z AUTO 27003KT 10SM BKN046 M01/M03 A3004 RMK AO2 SLP176 T10111028 TSNO $
Loading
Personal Weather Stations






























Interactive Weather Map New forecast layout! Learn more

10-Day Weather Forecast

Advertisements
Track Severe Weather on mobile